Time;durP1;ratioP1;P1;durP2;ratioP2;P2;SDS_P1;SDS_P2;PMS_P1;PMS_P2;Temp;Humidity;BMP_temperature;BMP_pressure;BME280_temperature;BME280_humidity;BME280_pressure;Samples;Min_cycle;Max_cycle;Signal;HPM_P1;HPM_P2
2022/08/20 20:38:55;;;;;;;10.60;6.95;;;;;;;24.95;54.21;99875.02;1856738;76;27402;-68
2022/08/20 20:41:27;;;;;;;37.53;11.85;;;;;;;24.75;54.62;99875.67;1792424;79;25500;-68
2022/08/20 20:44:21;;;;;;;13.20;7.33;;;;;;;24.59;55.05;99874.13;1792228;80;28170;-70
2022/08/20 20:46:52;;;;;;;13.30;6.78;;;;;;;24.42;55.30;99871.74;1794726;77;25287;-69
2022/08/20 20:49:28;;;;;;;8.28;6.42;;;;;;;24.22;55.69;99872.36;1792122;80;25592;-67
2022/08/20 20:52:09;;;;;;;13.93;8.20;;;;;;;24.07;55.64;99886.75;1791987;80;25429;-67
2022/08/20 20:54:43;;;;;;;14.13;7.35;;;;;;;23.94;56.14;99885.90;1790963;79;25532;-65
2022/08/20 20:57:23;;;;;;;12.05;8.18;;;;;;;23.83;56.36;99880.46;1772210;80;28153;-67
2022/08/20 20:59:51;;;;;;;12.43;7.25;;;;;;;23.76;56.84;99885.25;1795487;78;25756;-67
2022/08/20 21:02:21;;;;;;;9.30;6.33;;;;;;;23.68;56.91;99882.56;1800118;78;25721;-65
2022/08/20 21:04:49;;;;;;;14.07;6.50;;;;;;;23.61;56.92;99874.93;1793079;78;25737;-66
2022/08/20 21:07:20;;;;;;;9.68;6.35;;;;;;;23.55;57.07;99881.50;1804152;78;25439;-68
2022/08/20 21:09:50;;;;;;;11.22;6.60;;;;;;;23.49;57.17;99881.73;1802094;78;27523;-67
2022/08/20 21:12:16;;;;;;;10.53;6.92;;;;;;;23.43;57.28;99877.25;1804605;78;25635;-66
2022/08/20 21:14:42;;;;;;;11.53;6.70;;;;;;;23.37;57.55;99878.87;1791828;78;25654;-69
2022/08/20 21:17:14;;;;;;;11.25;6.75;;;;;;;23.34;57.80;99877.52;1795392;78;27356;-69
2022/08/20 21:19:40;;;;;;;14.33;6.83;;;;;;;23.28;57.97;99873.81;1800536;78;25551;-69
2022/08/20 21:22:07;;;;;;;9.85;6.47;;;;;;;23.25;58.19;99869.10;1818348;78;27520;-65
2022/08/20 21:24:33;;;;;;;7.12;6.25;;;;;;;23.24;58.45;99870.89;1801530;78;25393;-68
2022/08/20 21:27:02;;;;;;;9.18;6.28;;;;;;;23.20;58.57;99873.67;1805167;78;25609;-68
2022/08/20 21:29:30;;;;;;;9.98;6.40;;;;;;;23.19;58.65;99876.84;1810990;78;25696;-68
2022/08/20 21:31:58;;;;;;;12.37;6.95;;;;;;;23.19;58.76;99879.59;1823459;78;25380;-67
2022/08/20 21:34:24;;;;;;;9.83;6.65;;;;;;;23.16;58.87;99883.19;1800009;78;27516;-68
2022/08/20 21:36:51;;;;;;;8.60;6.83;;;;;;;23.13;58.90;99877.88;1807434;78;25836;-66
2022/08/20 21:39:17;;;;;;;11.88;7.28;;;;;;;23.15;59.21;99877.47;1819097;78;25655;-66
2022/08/20 21:41:44;;;;;;;13.20;10.00;;;;;;;23.12;59.15;99882.61;1798321;78;25955;-66
2022/08/20 21:44:22;;;;;;;39.27;31.75;;;;;;;23.08;59.16;99880.45;1812082;78;25440;-66
2022/08/20 21:46:50;;;;;;;13.40;8.03;;;;;;;23.01;59.10;99871.43;1821181;78;28188;-67
2022/08/20 21:49:18;;;;;;;39.35;31.35;;;;;;;22.97;59.18;99868.70;1805628;78;25382;-67
2022/08/20 21:51:46;;;;;;;24.87;15.60;;;;;;;22.94;59.37;99868.12;1797915;78;25445;-66
2022/08/20 21:54:12;;;;;;;16.60;11.05;;;;;;;22.91;59.55;99872.45;1819207;78;25548;-67
2022/08/20 21:56:39;;;;;;;27.95;25.00;;;;;;;22.88;59.84;99866.97;1798272;78;25415;-67
2022/08/20 21:59:07;;;;;;;12.00;8.23;;;;;;;22.87;60.01;99872.30;1797737;78;27451;-70
2022/08/20 22:01:36;;;;;;;41.50;30.95;;;;;;;22.87;60.04;99877.22;1822241;78;25592;-69
2022/08/20 22:04:04;;;;;;;21.77;18.35;;;;;;;22.86;60.38;99873.48;1828554;78;25537;-69
2022/08/20 22:06:32;;;;;;;25.85;18.32;;;;;;;22.87;60.69;99880.58;1824460;77;25487;-69
2022/08/20 22:08:58;;;;;;;45.78;39.35;;;;;;;22.89;60.74;99887.84;1816439;78;25543;-68
2022/08/20 22:11:24;;;;;;;22.93;17.25;;;;;;;22.89;60.94;99886.47;1821907;77;27536;-68
2022/08/20 22:13:51;;;;;;;27.45;15.70;;;;;;;22.90;60.93;99890.78;1797612;78;25751;-69
2022/08/20 22:16:20;;;;;;;17.67;11.25;;;;;;;22.91;61.00;99886.84;1812353;78;25549;-68
2022/08/20 22:18:48;;;;;;;24.95;15.32;;;;;;;22.93;61.06;99888.59;1822102;77;25387;-69
2022/08/20 22:21:20;;;;;;;13.15;9.48;;;;;;;22.92;60.89;99891.95;1824503;78;25434;-68
2022/08/20 22:23:46;;;;;;;9.43;6.40;;;;;;;22.92;60.70;99897.47;1816700;78;27634;-68
2022/08/20 22:26:15;;;;;;;6.62;5.95;;;;;;;22.92;60.73;99895.32;1798464;78;25575;-67
2022/08/20 22:28:42;;;;;;;19.57;10.83;;;;;;;22.93;60.68;99898.25;1798445;78;25475;-68
2022/08/20 22:31:09;;;;;;;8.83;6.25;;;;;;;22.93;60.64;99902.39;1814612;78;25355;-67
2022/08/20 22:33:36;;;;;;;9.63;7.10;;;;;;;22.96;60.69;99900.81;1804730;78;25672;-67
2022/08/20 22:36:05;;;;;;;8.48;6.60;;;;;;;22.95;60.60;99902.77;1801917;78;27444;-67
2022/08/20 22:38:31;;;;;;;6.97;5.90;;;;;;;22.99;60.71;99906.91;1821317;77;26222;-67
2022/08/20 22:40:58;;;;;;;10.03;6.35;;;;;;;22.98;60.66;99908.08;1816768;78;25766;-67
2022/08/20 22:43:24;;;;;;;9.08;6.17;;;;;;;22.98;60.76;99917.73;1794934;78;25848;-67
2022/08/20 22:45:54;;;;;;;7.15;5.70;;;;;;;22.98;60.81;99908.86;1818107;78;25402;-68
2022/08/20 22:48:21;;;;;;;7.53;5.90;;;;;;;22.97;60.77;99913.39;1810888;78;27497;-69
2022/08/20 22:50:48;;;;;;;9.43;6.20;;;;;;;22.96;60.82;99917.36;1800524;78;25776;-69
2022/08/20 22:53:17;;;;;;;8.85;5.72;;;;;;;22.92;60.80;99914.02;1794699;78;25237;-73
2022/08/20 22:55:44;;;;;;;7.00;5.95;;;;;;;22.91;60.93;99911.06;1794912;78;25655;-72
2022/08/20 22:58:10;;;;;;;10.15;5.22;;;;;;;22.93;61.14;99914.22;1798817;78;25625;-67
2022/08/20 23:00:38;;;;;;;10.13;5.83;;;;;;;22.94;61.15;99909.48;1822385;78;27522;-66
2022/08/20 23:03:05;;;;;;;9.55;5.85;;;;;;;22.94;61.29;99911.64;1803729;78;25783;-65
2022/08/20 23:05:35;;;;;;;7.80;5.90;;;;;;;22.96;61.21;99913.22;1802474;77;25684;-66
2022/08/20 23:08:03;;;;;;;7.55;5.87;;;;;;;22.95;61.27;99916.55;1794740;78;25609;-66
2022/08/20 23:10:32;;;;;;;9.05;5.95;;;;;;;22.94;61.23;99917.16;1794987;78;25213;-66
2022/08/20 23:12:58;;;;;;;8.58;6.00;;;;;;;22.94;61.39;99928.18;1809772;78;28232;-66
2022/08/20 23:15:28;;;;;;;11.45;6.17;;;;;;;22.94;61.50;99927.41;1813359;78;25515;-66
2022/08/20 23:18:03;;;;;;;11.80;6.35;;;;;;;22.94;61.61;99921.89;1817229;78;25567;-67
2022/08/20 23:20:29;;;;;;;9.28;6.33;;;;;;;22.93;61.65;99923.88;1802301;78;25536;-66
2022/08/20 23:22:56;;;;;;;7.05;5.20;;;;;;;22.91;61.62;99928.98;1808630;78;25719;-66
2022/08/20 23:25:22;;;;;;;8.65;5.87;;;;;;;22.91;61.77;99935.09;1816304;78;27459;-66
2022/08/20 23:27:52;;;;;;;8.90;6.10;;;;;;;22.87;61.73;99927.45;1794835;78;26059;-66
2022/08/20 23:30:21;;;;;;;8.30;6.33;;;;;;;22.84;61.77;99929.02;1809656;78;25646;-66
2022/08/20 23:32:47;;;;;;;8.50;5.75;;;;;;;22.82;61.79;99929.25;1808757;78;25924;-66
2022/08/20 23:35:15;;;;;;;9.93;5.58;;;;;;;22.79;61.89;99928.06;1794948;78;25468;-66
2022/08/20 23:37:49;;;;;;;7.22;5.35;;;;;;;22.77;61.99;99936.56;1815506;78;27641;-66
2022/08/20 23:40:18;;;;;;;10.08;6.33;;;;;;;22.74;62.06;99932.62;1822541;78;25605;-66
2022/08/20 23:42:44;;;;;;;;;;;;;;;22.74;62.19;99947.17;1815730;78;25547;-66
2022/08/20 23:45:11;;;;;;;8.53;6.60;;;;;;;22.73;62.29;99947.58;1791204;78;25845;-66
2022/08/20 23:47:39;;;;;;;8.03;5.83;;;;;;;22.71;62.29;99938.92;1819012;78;25815;-66
2022/08/20 23:50:10;;;;;;;9.68;6.40;;;;;;;22.70;62.42;99938.15;1816467;78;27518;-66
2022/08/20 23:52:37;;;;;;;7.15;5.83;;;;;;;22.69;62.47;99939.92;1807768;78;25672;-66
2022/08/20 23:55:05;;;;;;;10.78;6.03;;;;;;;22.66;62.36;99937.96;1807366;78;25601;-67
2022/08/20 23:57:31;;;;;;;10.10;5.87;;;;;;;22.64;62.62;99943.09;1794978;78;25676;-66
2022/08/20 23:59:58;;;;;;;10.58;6.75;;;;;;;22.57;62.54;99945.28;1811427;78;25618;-66
